createdAt,value
2022-09-21T00:01:47.050Z,100.00
2022-09-21T00:06:49.649Z,100.00
2022-09-21T00:11:56.358Z,100.00
2022-09-21T00:17:02.128Z,100.00
2022-09-21T00:22:04.696Z,100.00
2022-09-21T00:27:07.666Z,100.00
2022-09-21T00:32:11.559Z,100.00
2022-09-21T00:37:14.188Z,100.00
2022-09-21T00:42:20.031Z,100.00
2022-09-21T00:47:28.687Z,100.00
2022-09-21T00:52:35.138Z,100.00
2022-09-21T00:57:38.883Z,100.00
2022-09-21T01:02:43.395Z,100.00
2022-09-21T01:07:48.628Z,100.00
2022-09-21T01:13:01.876Z,100.00
2022-09-21T01:18:13.501Z,100.00
2022-09-21T01:23:43.414Z,100.00
2022-09-21T01:29:12.728Z,100.00
2022-09-21T01:34:23.720Z,100.00
2022-09-21T01:39:28.294Z,100.00
2022-09-21T01:44:35.444Z,100.00
2022-09-21T01:49:42.150Z,100.00
2022-09-21T01:54:48.748Z,100.00
2022-09-21T01:59:55.228Z,100.00
2022-09-21T02:04:58.847Z,100.00
2022-09-21T02:10:02.935Z,100.00
2022-09-21T02:15:08.479Z,100.00
2022-09-21T02:20:20.379Z,100.00
2022-09-21T02:25:40.472Z,100.00
2022-09-21T02:30:54.845Z,100.00
2022-09-21T02:36:05.844Z,100.00
2022-09-21T02:41:17.821Z,100.00
2022-09-21T02:46:27.671Z,100.00
2022-09-21T02:51:32.853Z,100.00
2022-09-21T02:56:36.613Z,100.00
2022-09-21T03:01:42.392Z,100.00
2022-09-21T03:06:44.966Z,100.00
2022-09-21T03:11:47.958Z,100.00
2022-09-21T03:16:52.304Z,100.00
2022-09-21T03:21:55.484Z,100.00
2022-09-21T03:26:58.250Z,100.00
2022-09-21T03:32:02.568Z,100.00
2022-09-21T03:37:06.998Z,100.00
2022-09-21T03:42:10.520Z,100.00
2022-09-21T03:47:14.402Z,100.00
2022-09-21T03:52:16.945Z,100.00
2022-09-21T03:57:19.510Z,100.00
2022-09-21T04:02:23.487Z,100.00
2022-09-21T04:07:26.190Z,100.00
2022-09-21T04:12:29.022Z,100.00
2022-09-21T04:17:32.899Z,100.00
2022-09-21T04:22:41.158Z,100.00
2022-09-21T04:27:45.794Z,100.00
2022-09-21T04:32:49.668Z,100.00
2022-09-21T04:37:55.646Z,100.00
2022-09-21T04:42:58.552Z,100.00
2022-09-21T04:48:02.990Z,100.00
2022-09-21T04:53:05.875Z,100.00
2022-09-21T04:58:08.427Z,100.00
2022-09-21T05:03:12.345Z,100.00
2022-09-21T05:08:15.631Z,100.00
2022-09-21T05:13:19.906Z,100.00
2022-09-21T05:18:23.841Z,100.00
2022-09-21T05:23:29.450Z,100.00
2022-09-21T05:28:35.526Z,100.00
2022-09-21T05:33:49.353Z,100.00
2022-09-21T05:38:52.448Z,100.00
2022-09-21T05:43:56.217Z,100.00
2022-09-21T05:49:06.842Z,100.00
2022-09-21T05:54:14.624Z,100.00
2022-09-21T05:59:33.796Z,100.00
2022-09-21T06:04:38.360Z,100.00
2022-09-21T06:09:43.211Z,100.00
2022-09-21T06:14:45.975Z,100.00
2022-09-21T06:19:49.885Z,100.00
2022-09-21T06:24:52.899Z,100.00
2022-09-21T06:29:55.826Z,100.00
2022-09-21T06:34:59.757Z,100.00
2022-09-21T06:40:02.733Z,100.00
2022-09-21T06:45:06.099Z,100.00
2022-09-21T06:50:10.432Z,100.00
2022-09-21T06:55:13.478Z,100.00
2022-09-21T07:00:16.598Z,100.00
2022-09-21T07:05:20.487Z,100.00
2022-09-21T07:10:23.040Z,100.00
2022-09-21T07:15:28.949Z,100.00
2022-09-21T07:20:32.833Z,100.00
2022-09-21T07:25:35.376Z,100.00
2022-09-21T07:30:38.442Z,100.00
2022-09-21T07:35:52.057Z,100.00
2022-09-21T07:40:54.790Z,100.00
2022-09-21T07:45:57.960Z,100.00
2022-09-21T07:51:06.161Z,100.00
2022-09-21T07:56:10.917Z,100.00
2022-09-21T08:01:13.795Z,100.00
2022-09-21T08:06:17.966Z,100.00
2022-09-21T08:11:22.375Z,100.00
2022-09-21T08:16:25.293Z,100.00
2022-09-21T08:21:29.478Z,100.00
2022-09-21T08:26:33.811Z,100.00
2022-09-21T08:31:36.581Z,100.00
2022-09-21T08:36:40.888Z,100.00
2022-09-21T08:41:58.708Z,100.00
2022-09-21T08:47:07.050Z,100.00
2022-09-21T08:52:16.334Z,100.00
2022-09-21T08:57:21.234Z,100.00
2022-09-21T09:02:38.444Z,100.00
2022-09-21T09:08:02.926Z,100.00
2022-09-21T09:13:22.190Z,100.00
2022-09-21T09:18:34.390Z,100.00
2022-09-21T09:23:44.423Z,100.00
2022-09-21T09:28:53.312Z,100.00
2022-09-21T09:34:02.441Z,100.00
2022-09-21T09:39:12.683Z,100.00
2022-09-21T09:44:38.782Z,100.00
2022-09-21T09:49:53.524Z,100.00
2022-09-21T09:54:57.476Z,100.00
2022-09-21T10:00:03.893Z,100.00
2022-09-21T10:05:22.052Z,100.00
2022-09-21T10:10:32.815Z,97.14
2022-09-21T10:15:43.102Z,96.68
2022-09-21T10:20:58.247Z,95.78
2022-09-21T10:26:05.102Z,94.08
2022-09-21T10:31:18.736Z,94.56
2022-09-21T10:36:28.802Z,95.17
2022-09-21T10:41:33.220Z,92.77
2022-09-21T10:46:36.826Z,92.71
2022-09-21T10:51:39.608Z,95.96
2022-09-21T10:56:54.442Z,95.49
2022-09-21T11:01:58.991Z,97.60
2022-09-21T11:07:08.936Z,97.06
2022-09-21T11:12:33.919Z,97.11
2022-09-21T11:17:42.113Z,94.87
2022-09-21T11:22:57.238Z,95.65
2022-09-21T11:28:09.984Z,96.71
2022-09-21T11:33:27.690Z,97.97
2022-09-21T11:38:47.047Z,99.74
2022-09-21T11:44:10.014Z,100.00
2022-09-21T11:49:38.666Z,99.44
2022-09-21T11:54:58.454Z,98.92
2022-09-21T12:00:15.271Z,98.11
2022-09-21T12:05:23.724Z,96.61
2022-09-21T12:10:40.562Z,96.77
2022-09-21T12:15:50.435Z,96.43
2022-09-21T12:21:05.288Z,97.91
2022-09-21T12:26:11.306Z,98.91
2022-09-21T12:31:21.603Z,98.42
2022-09-21T12:36:29.089Z,96.98
2022-09-21T12:41:40.743Z,96.36
2022-09-21T12:46:52.920Z,95.68
2022-09-21T12:52:00.396Z,94.37
2022-09-21T12:57:29.724Z,94.45
2022-09-21T13:02:42.681Z,92.85
2022-09-21T13:08:06.339Z,84.96
2022-09-21T13:13:20.204Z,81.66
2022-09-21T13:18:33.769Z,83.47
2022-09-21T13:23:41.890Z,83.01
2022-09-21T13:29:06.518Z,84.08
2022-09-21T13:34:25.156Z,83.88
2022-09-21T13:39:28.059Z,88.88
2022-09-21T13:44:43.814Z,87.82
2022-09-21T13:49:54.871Z,82.59
2022-09-21T13:55:04.006Z,81.69
2022-09-21T14:00:34.821Z,83.44
2022-09-21T14:05:43.719Z,83.08
2022-09-21T14:11:00.339Z,84.38
2022-09-21T14:16:51.890Z,83.94
2022-09-21T14:22:28.451Z,83.51
2022-09-21T14:27:35.247Z,84.45
2022-09-21T14:32:44.431Z,82.58
2022-09-21T14:37:52.044Z,79.75
2022-09-21T14:42:58.724Z,79.18
2022-09-21T14:48:09.569Z,81.07
2022-09-21T14:53:45.267Z,80.92
2022-09-21T14:59:00.799Z,83.46
2022-09-21T15:04:19.897Z,79.58
2022-09-21T15:10:02.905Z,81.59
2022-09-21T15:15:24.060Z,83.56
2022-09-21T15:20:28.420Z,80.58
2022-09-21T15:25:34.371Z,81.01
2022-09-21T15:30:45.796Z,78.84
2022-09-21T15:35:48.406Z,79.10
2022-09-21T15:40:51.211Z,80.54
2022-09-21T15:45:59.060Z,81.66
2022-09-21T15:51:07.559Z,82.96
2022-09-21T15:56:19.028Z,84.36
2022-09-21T16:01:23.708Z,87.85
2022-09-21T16:06:37.190Z,88.08
2022-09-21T16:11:39.750Z,88.59
2022-09-21T16:17:16.760Z,90.23
2022-09-21T16:22:24.271Z,89.31
2022-09-21T16:27:30.185Z,89.64
2022-09-21T16:32:34.212Z,90.78
2022-09-21T16:37:38.125Z,91.62
2022-09-21T16:42:44.143Z,91.17
2022-09-21T16:47:46.934Z,89.42
2022-09-21T16:52:51.982Z,89.49
2022-09-21T16:57:54.566Z,89.48
2022-09-21T17:02:57.269Z,87.49
2022-09-21T17:08:01.203Z,87.72
2022-09-21T17:13:06.183Z,88.50
2022-09-21T17:18:11.476Z,88.88
2022-09-21T17:23:15.608Z,89.66
2022-09-21T17:28:25.881Z,91.10
2022-09-21T17:33:29.042Z,92.42
2022-09-21T17:38:34.773Z,94.31
2022-09-21T17:43:46.405Z,95.27
2022-09-21T17:48:49.541Z,98.45
2022-09-21T17:53:54.072Z,100.00
2022-09-21T17:59:01.503Z,100.00
2022-09-21T18:04:04.967Z,100.00
2022-09-21T18:09:12.777Z,100.00
2022-09-21T18:14:28.484Z,100.00
2022-09-21T18:19:45.367Z,100.00
2022-09-21T18:24:51.135Z,100.00
2022-09-21T18:29:54.296Z,100.00
2022-09-21T18:35:10.447Z,100.00
2022-09-21T18:40:23.256Z,100.00
2022-09-21T18:45:29.306Z,100.00
2022-09-21T18:50:40.645Z,100.00
2022-09-21T18:55:45.418Z,100.00
2022-09-21T19:00:48.655Z,100.00
2022-09-21T19:06:08.147Z,100.00
2022-09-21T19:11:24.938Z,100.00
2022-09-21T19:16:33.874Z,100.00
2022-09-21T19:21:58.297Z,100.00
2022-09-21T19:27:20.711Z,100.00
2022-09-21T19:32:33.972Z,100.00
2022-09-21T19:37:38.410Z,100.00
2022-09-21T19:43:04.047Z,100.00
2022-09-21T19:48:12.395Z,100.00
2022-09-21T19:53:34.270Z,100.00
2022-09-21T19:58:57.311Z,100.00
2022-09-21T20:04:02.009Z,100.00
2022-09-21T20:09:14.525Z,100.00
2022-09-21T20:14:33.005Z,100.00
2022-09-21T20:19:47.151Z,100.00
2022-09-21T20:24:58.142Z,100.00
2022-09-21T20:30:02.467Z,100.00
2022-09-21T20:35:15.060Z,100.00
2022-09-21T20:40:17.788Z,100.00
2022-09-21T20:45:23.130Z,100.00
2022-09-21T20:50:26.529Z,100.00
2022-09-21T20:55:29.080Z,100.00
2022-09-21T21:00:47.056Z,100.00
2022-09-21T21:05:50.022Z,100.00
2022-09-21T21:10:56.495Z,100.00
2022-09-21T21:16:00.863Z,100.00
2022-09-21T21:21:05.522Z,100.00
2022-09-21T21:26:08.062Z,100.00
2022-09-21T21:31:16.167Z,100.00
2022-09-21T21:36:22.045Z,100.00
2022-09-21T21:41:24.686Z,100.00
2022-09-21T21:46:29.722Z,100.00
2022-09-21T21:51:32.656Z,100.00
2022-09-21T21:56:35.236Z,100.00
2022-09-21T22:01:40.104Z,100.00
2022-09-21T22:06:43.320Z,100.00
2022-09-21T22:11:46.432Z,100.00
2022-09-21T22:16:51.286Z,100.00
2022-09-21T22:21:54.842Z,100.00
2022-09-21T22:26:57.667Z,100.00
2022-09-21T22:32:01.999Z,100.00
2022-09-21T22:37:04.566Z,100.00
2022-09-21T22:42:07.326Z,100.00
2022-09-21T22:47:11.186Z,100.00
2022-09-21T22:52:13.714Z,100.00
2022-09-21T22:57:16.266Z,100.00
2022-09-21T23:02:20.160Z,100.00
2022-09-21T23:07:22.716Z,100.00
2022-09-21T23:12:25.274Z,100.00
2022-09-21T23:17:30.235Z,100.00
2022-09-21T23:22:32.772Z,100.00
2022-09-21T23:27:35.811Z,100.00
2022-09-21T23:32:39.831Z,100.00
2022-09-21T23:37:42.380Z,100.00
2022-09-21T23:42:44.925Z,100.00
2022-09-21T23:47:48.813Z,100.00
2022-09-21T23:52:51.376Z,100.00
2022-09-21T23:57:53.907Z,100.00
